createdAt,value
2019-03-26T00:00:20.119Z,7.31
2019-03-26T00:01:20.111Z,7.34
2019-03-26T00:02:20.099Z,7.32
2019-03-26T00:03:20.089Z,7.35
2019-03-26T00:04:20.089Z,7.40
2019-03-26T00:05:20.386Z,7.41
2019-03-26T00:06:20.068Z,7.44
2019-03-26T00:07:20.328Z,7.42
2019-03-26T00:08:20.988Z,7.17
2019-03-26T00:09:20.038Z,7.05
2019-03-26T00:10:20.018Z,6.98
2019-03-26T00:11:20.051Z,6.94
2019-03-26T00:12:19.997Z,6.90
2019-03-26T00:13:19.990Z,7.04
2019-03-26T00:14:20.757Z,7.13
2019-03-26T00:15:19.968Z,7.15
2019-03-26T00:16:19.960Z,7.19
2019-03-26T00:17:19.997Z,7.16
2019-03-26T00:18:19.951Z,7.13
2019-03-26T00:19:19.929Z,7.01
2019-03-26T00:20:19.916Z,7.05
2019-03-26T00:21:20.345Z,7.04
2019-03-26T00:22:19.906Z,6.84
2019-03-26T00:23:19.953Z,6.90
2019-03-26T00:24:20.509Z,6.89
2019-03-26T00:25:19.865Z,6.80
2019-03-26T00:26:20.512Z,6.79
2019-03-26T00:27:20.505Z,6.86
2019-03-26T00:28:20.116Z,6.94
2019-03-26T00:29:19.874Z,6.99
2019-03-26T00:30:19.823Z,6.98
2019-03-26T00:31:19.804Z,6.94
2019-03-26T00:32:19.795Z,6.95
2019-03-26T00:33:19.792Z,6.97
2019-03-26T00:34:19.942Z,6.94
2019-03-26T00:35:20.085Z,6.90
2019-03-26T00:36:19.808Z,6.84
2019-03-26T00:37:19.744Z,6.84
2019-03-26T00:38:19.755Z,6.86
2019-03-26T00:39:19.724Z,6.86
2019-03-26T00:40:19.747Z,6.87
2019-03-26T00:41:19.763Z,6.79
2019-03-26T00:42:19.974Z,6.86
2019-03-26T00:43:19.683Z,6.84
2019-03-26T00:44:19.678Z,6.77
2019-03-26T00:45:19.703Z,6.76
2019-03-26T00:46:19.652Z,6.80
2019-03-26T00:47:19.683Z,6.80
2019-03-26T00:48:19.630Z,6.84
2019-03-26T00:49:19.914Z,6.91
2019-03-26T00:50:19.661Z,7.01
2019-03-26T00:51:19.599Z,7.04
2019-03-26T00:52:19.591Z,7.07
2019-03-26T00:53:19.618Z,7.02
2019-03-26T00:54:19.569Z,6.83
2019-03-26T00:55:22.821Z,6.73
2019-03-26T00:56:19.839Z,6.76
2019-03-26T00:57:19.539Z,6.80
2019-03-26T00:58:19.531Z,6.86
2019-03-26T00:59:19.580Z,6.90
2019-03-26T01:00:19.510Z,6.98
2019-03-26T01:01:19.500Z,6.91
2019-03-26T01:02:19.489Z,6.72
2019-03-26T01:03:19.751Z,6.65
2019-03-26T01:04:31.839Z,6.65
2019-03-26T01:05:20.500Z,6.63
2019-03-26T01:06:19.448Z,6.59
2019-03-26T01:07:19.440Z,6.53
2019-03-26T01:08:19.429Z,6.53
2019-03-26T01:09:19.419Z,6.53
2019-03-26T01:10:19.709Z,6.56
2019-03-26T01:11:19.439Z,6.53
2019-03-26T01:12:19.379Z,6.47
2019-03-26T01:13:19.383Z,6.50
2019-03-26T01:14:19.372Z,6.59
2019-03-26T01:15:19.366Z,6.66
2019-03-26T01:16:19.340Z,6.68
2019-03-26T01:17:19.859Z,6.72
2019-03-26T01:18:19.335Z,6.72
2019-03-26T01:19:19.329Z,6.73
2019-03-26T01:20:19.308Z,6.77
2019-03-26T01:21:19.288Z,6.71
2019-03-26T01:22:19.280Z,6.62
2019-03-26T01:23:19.396Z,6.47
2019-03-26T01:24:20.477Z,6.48
2019-03-26T01:25:19.247Z,6.41
2019-03-26T01:26:19.247Z,6.28
2019-03-26T01:27:19.227Z,6.22
2019-03-26T01:28:19.227Z,6.28
2019-03-26T01:29:19.256Z,6.28
2019-03-26T01:30:19.206Z,6.35
2019-03-26T01:31:19.187Z,6.30
2019-03-26T01:32:19.176Z,6.28
2019-03-26T01:33:19.166Z,6.18
2019-03-26T01:34:19.156Z,6.19
2019-03-26T01:35:19.206Z,6.16
2019-03-26T01:36:19.136Z,6.09
2019-03-26T01:37:19.417Z,6.10
2019-03-26T01:38:19.123Z,6.18
2019-03-26T01:39:19.116Z,6.21
2019-03-26T01:40:19.105Z,6.14
2019-03-26T01:41:19.135Z,6.09
2019-03-26T01:42:19.076Z,6.10
2019-03-26T01:43:19.065Z,6.18
2019-03-26T01:44:19.336Z,6.19
2019-03-26T01:45:19.047Z,6.21
2019-03-26T01:46:19.108Z,6.14
2019-03-26T01:47:19.075Z,6.16
2019-03-26T01:48:19.015Z,6.19
2019-03-26T01:49:19.004Z,6.25
2019-03-26T01:50:18.994Z,6.29
2019-03-26T01:51:19.262Z,6.40
2019-03-26T01:52:18.975Z,6.46
2019-03-26T01:53:20.435Z,6.47
2019-03-26T01:54:18.954Z,6.50
2019-03-26T01:55:18.942Z,6.61
2019-03-26T01:56:18.932Z,6.56
2019-03-26T01:57:18.938Z,6.62
2019-03-26T01:58:18.913Z,6.63
2019-03-26T01:59:18.937Z,6.63
2019-03-26T02:00:18.883Z,6.56
2019-03-26T02:01:18.872Z,6.54
2019-03-26T02:02:18.871Z,6.48
2019-03-26T02:03:19.180Z,6.48
2019-03-26T02:04:18.894Z,6.44
2019-03-26T02:05:18.939Z,6.43
2019-03-26T02:06:18.842Z,6.40
2019-03-26T02:07:18.813Z,6.30
2019-03-26T02:08:18.803Z,6.25
2019-03-26T02:09:19.081Z,6.25
2019-03-26T02:10:18.789Z,6.18
2019-03-26T02:11:18.969Z,6.13
2019-03-26T02:12:18.767Z,6.14
2019-03-26T02:13:18.751Z,6.18
2019-03-26T02:14:18.742Z,6.10
2019-03-26T02:15:18.730Z,6.07
2019-03-26T02:16:18.724Z,6.09
2019-03-26T02:17:18.747Z,6.04
2019-03-26T02:18:18.701Z,6.01
2019-03-26T02:19:18.691Z,6.04
2019-03-26T02:20:18.690Z,6.06
2019-03-26T02:21:18.950Z,6.04
2019-03-26T02:22:18.667Z,6.11
2019-03-26T02:23:18.692Z,6.11
2019-03-26T02:24:18.638Z,6.10
2019-03-26T02:25:18.627Z,6.10
2019-03-26T02:26:18.623Z,6.07
2019-03-26T02:27:18.608Z,6.10
2019-03-26T02:28:18.869Z,6.19
2019-03-26T02:29:18.649Z,6.14
2019-03-26T02:30:18.571Z,6.07
2019-03-26T02:31:18.563Z,6.04
2019-03-26T02:32:18.555Z,6.07
2019-03-26T02:33:18.551Z,6.09
2019-03-26T02:34:18.528Z,6.07
2019-03-26T02:35:19.450Z,6.06
2019-03-26T02:36:18.509Z,6.00
2019-03-26T02:37:18.497Z,6.00
2019-03-26T02:38:18.491Z,6.01
2019-03-26T02:39:18.487Z,5.92
2019-03-26T02:40:18.485Z,5.83
2019-03-26T02:41:18.498Z,5.89
2019-03-26T02:42:18.727Z,5.96
2019-03-26T02:43:18.438Z,5.98
2019-03-26T02:44:18.445Z,5.93
2019-03-26T02:45:18.417Z,5.92
2019-03-26T02:46:18.409Z,5.96
2019-03-26T02:47:18.556Z,6.09
2019-03-26T02:48:18.389Z,6.06
2019-03-26T02:49:18.666Z,6.11
2019-03-26T02:50:18.369Z,6.04
2019-03-26T02:51:18.363Z,6.03
2019-03-26T02:52:18.345Z,6.04
2019-03-26T02:53:18.368Z,5.98
2019-03-26T02:54:18.327Z,5.91
2019-03-26T02:55:18.325Z,5.91
2019-03-26T02:56:18.586Z,5.82
2019-03-26T02:57:18.412Z,5.77
2019-03-26T02:58:18.289Z,5.81
2019-03-26T02:59:18.306Z,5.88
2019-03-26T03:01:34.949Z,5.85
2019-03-26T03:02:34.490Z,5.93
2019-03-26T03:03:34.484Z,6.06
2019-03-26T03:04:34.534Z,6.00
2019-03-26T03:05:36.179Z,5.92
2019-03-26T03:06:34.470Z,5.85
2019-03-26T03:07:34.439Z,5.83
2019-03-26T03:08:34.710Z,5.81
2019-03-26T03:09:34.409Z,5.78
2019-03-26T03:10:34.447Z,5.83
2019-03-26T03:11:34.396Z,5.85
2019-03-26T03:12:34.379Z,5.82
2019-03-26T03:13:34.377Z,5.77
2019-03-26T03:14:34.358Z,5.73
2019-03-26T03:15:34.658Z,5.70
2019-03-26T03:16:34.379Z,5.64
2019-03-26T03:17:34.328Z,5.66
2019-03-26T03:18:34.328Z,5.70
2019-03-26T03:19:34.329Z,5.73
2019-03-26T03:20:34.319Z,5.85
2019-03-26T03:21:34.288Z,5.81
2019-03-26T03:22:34.976Z,5.86
2019-03-26T03:23:34.267Z,5.85
2019-03-26T03:24:34.267Z,5.77
2019-03-26T03:25:34.247Z,5.71
2019-03-26T03:26:34.242Z,5.74
2019-03-26T03:27:34.229Z,5.75
2019-03-26T03:28:34.399Z,5.91
2019-03-26T03:29:34.484Z,5.88
2019-03-26T03:30:34.199Z,5.77
2019-03-26T03:31:34.184Z,5.73
2019-03-26T03:32:34.174Z,5.71
2019-03-26T03:33:34.171Z,5.75
2019-03-26T03:34:34.208Z,5.81
2019-03-26T03:35:50.814Z,5.77
2019-03-26T03:36:35.136Z,5.77
2019-03-26T03:37:34.134Z,5.77
2019-03-26T03:38:34.115Z,5.73
2019-03-26T03:39:34.104Z,5.71
2019-03-26T03:40:34.145Z,5.70
2019-03-26T03:41:34.090Z,5.71
2019-03-26T03:42:34.390Z,5.71
2019-03-26T03:43:34.055Z,5.74
2019-03-26T03:44:34.050Z,5.70
2019-03-26T03:45:34.034Z,5.67
2019-03-26T03:46:34.066Z,5.73
2019-03-26T03:47:34.043Z,5.78
2019-03-26T03:48:34.005Z,5.78
2019-03-26T03:49:34.273Z,5.78
2019-03-26T03:50:33.982Z,5.82
2019-03-26T03:51:33.982Z,5.78
2019-03-26T03:52:34.001Z,5.73
2019-03-26T03:53:33.958Z,5.63
2019-03-26T03:54:33.965Z,5.56
2019-03-26T03:55:33.932Z,5.56
2019-03-26T03:56:34.192Z,5.56
2019-03-26T03:57:33.912Z,5.55
2019-03-26T03:58:34.212Z,5.59
2019-03-26T03:59:33.892Z,5.70
2019-03-26T04:00:33.871Z,5.85
2019-03-26T04:01:33.869Z,5.88
2019-03-26T04:02:33.866Z,5.95
2019-03-26T04:03:34.121Z,5.91
2019-03-26T04:04:33.868Z,5.89
2019-03-26T04:05:33.831Z,5.85
2019-03-26T04:06:33.811Z,5.78
2019-03-26T04:07:33.821Z,5.77
2019-03-26T04:08:33.801Z,5.81
2019-03-26T04:09:33.781Z,5.82
2019-03-26T04:10:34.089Z,5.75
2019-03-26T04:11:33.762Z,5.66
2019-03-26T04:12:33.751Z,5.64
2019-03-26T04:13:33.749Z,5.75
2019-03-26T04:14:33.730Z,5.82
2019-03-26T04:15:35.125Z,5.81
2019-03-26T04:16:33.775Z,5.73
2019-03-26T04:17:33.978Z,5.68
2019-03-26T04:18:33.690Z,5.70
2019-03-26T04:19:33.689Z,5.70
2019-03-26T04:20:33.676Z,5.73
2019-03-26T04:21:33.670Z,5.67
2019-03-26T04:22:33.694Z,5.60
2019-03-26T04:23:33.647Z,5.56
2019-03-26T04:24:33.898Z,5.63
2019-03-26T04:25:33.614Z,5.66
2019-03-26T04:26:33.598Z,5.64
2019-03-26T04:27:33.588Z,5.59
2019-03-26T04:28:33.614Z,5.52
2019-03-26T04:29:33.567Z,5.55
2019-03-26T04:30:33.556Z,5.68
2019-03-26T04:31:33.546Z,5.71
2019-03-26T04:32:33.537Z,5.68
2019-03-26T04:33:33.525Z,5.64
2019-03-26T04:34:33.585Z,5.64
2019-03-26T04:35:33.517Z,5.64
2019-03-26T04:36:33.493Z,5.74
2019-03-26T04:37:33.764Z,5.73
2019-03-26T04:38:33.476Z,5.70
2019-03-26T04:39:33.462Z,5.74
2019-03-26T04:40:33.497Z,5.86
2019-03-26T04:41:33.443Z,5.86
2019-03-26T04:42:33.434Z,5.91
2019-03-26T04:43:33.421Z,5.98
2019-03-26T04:44:33.424Z,5.96
2019-03-26T04:45:33.403Z,5.91
2019-03-26T04:46:33.423Z,5.85
2019-03-26T04:47:33.383Z,5.78
2019-03-26T04:48:33.363Z,5.77
2019-03-26T04:49:33.712Z,5.70
2019-03-26T04:50:33.352Z,5.71
2019-03-26T04:51:33.333Z,5.78
2019-03-26T04:52:33.382Z,5.74
2019-03-26T04:53:34.315Z,5.71
2019-03-26T04:54:33.302Z,5.70
2019-03-26T04:55:33.303Z,5.74
2019-03-26T04:56:33.317Z,5.68
2019-03-26T04:57:33.673Z,5.71
2019-03-26T04:58:33.301Z,5.66
2019-03-26T04:59:33.291Z,5.63
2019-03-26T05:00:33.286Z,5.60
2019-03-26T05:01:34.152Z,5.68
2019-03-26T05:02:33.241Z,5.64
2019-03-26T05:03:34.040Z,5.66
2019-03-26T05:04:33.230Z,5.63
2019-03-26T05:05:33.191Z,5.56
2019-03-26T05:06:38.230Z,5.52
2019-03-26T05:07:34.450Z,5.49
2019-03-26T05:08:33.158Z,5.49
2019-03-26T05:09:33.151Z,5.52
2019-03-26T05:10:33.429Z,5.55
2019-03-26T05:11:33.120Z,5.53
2019-03-26T05:12:33.109Z,5.52
2019-03-26T05:13:33.099Z,5.53
2019-03-26T05:14:33.372Z,5.57
2019-03-26T05:15:33.090Z,5.56
2019-03-26T05:16:33.108Z,5.63
2019-03-26T05:17:33.058Z,5.67
2019-03-26T05:18:33.052Z,5.67
2019-03-26T05:19:33.038Z,5.67
2019-03-26T05:20:33.026Z,5.64
2019-03-26T05:21:33.317Z,5.57
2019-03-26T05:22:33.046Z,5.57
2019-03-26T05:23:34.105Z,5.64
2019-03-26T05:24:32.989Z,5.60
2019-03-26T05:25:32.997Z,5.57
2019-03-26T05:26:32.963Z,5.53
2019-03-26T05:27:44.911Z,5.53
2019-03-26T05:28:34.017Z,5.56
2019-03-26T05:29:32.927Z,5.56
2019-03-26T05:30:33.289Z,5.60
2019-03-26T05:31:32.915Z,5.60
2019-03-26T05:32:33.478Z,5.57
2019-03-26T05:33:32.895Z,5.56
2019-03-26T05:34:33.253Z,5.55
2019-03-26T05:35:32.865Z,5.53
2019-03-26T05:36:32.863Z,5.53
2019-03-26T05:37:32.855Z,5.57
2019-03-26T05:38:32.875Z,5.63
2019-03-26T05:39:32.824Z,5.59
2019-03-26T05:40:32.855Z,5.60
2019-03-26T05:41:33.092Z,5.60
2019-03-26T05:42:32.794Z,5.63
2019-03-26T05:43:32.782Z,5.66
2019-03-26T05:44:32.833Z,5.66
2019-03-26T05:45:32.771Z,5.64
2019-03-26T05:46:32.799Z,5.60
2019-03-26T05:47:32.743Z,5.59
2019-03-26T05:48:33.022Z,5.60
2019-03-26T05:49:32.725Z,5.59
2019-03-26T05:50:32.724Z,5.60
2019-03-26T05:51:32.702Z,5.70
2019-03-26T05:52:32.734Z,5.77
2019-03-26T05:53:32.681Z,5.81
2019-03-26T05:54:32.882Z,5.78
2019-03-26T05:55:32.974Z,5.73
2019-03-26T05:56:32.881Z,5.73
2019-03-26T05:57:32.782Z,5.81
2019-03-26T05:58:32.792Z,5.74
2019-03-26T05:59:32.831Z,5.70
2019-03-26T06:00:32.620Z,5.70
2019-03-26T06:01:32.600Z,5.71
2019-03-26T06:02:32.582Z,5.70
2019-03-26T06:03:32.591Z,5.71
2019-03-26T06:04:32.630Z,5.68
2019-03-26T06:05:32.552Z,5.70
2019-03-26T06:06:32.540Z,5.71
2019-03-26T06:07:32.831Z,5.73
2019-03-26T06:08:32.830Z,5.77
2019-03-26T06:09:32.517Z,5.81
2019-03-26T06:10:32.561Z,5.82
2019-03-26T06:11:32.508Z,5.83
2019-03-26T06:12:32.479Z,5.83
2019-03-26T06:13:32.520Z,5.78
2019-03-26T06:14:32.480Z,5.82
2019-03-26T06:15:32.460Z,5.86
2019-03-26T06:16:38.357Z,5.85
2019-03-26T06:17:33.420Z,5.83
2019-03-26T06:18:32.429Z,5.86
2019-03-26T06:19:32.788Z,5.83
2019-03-26T06:20:32.578Z,5.85
2019-03-26T06:21:32.553Z,5.89
2019-03-26T06:22:32.488Z,5.91
2019-03-26T06:23:32.368Z,5.96
2019-03-26T06:24:32.557Z,6.04
2019-03-26T06:25:32.338Z,6.10
2019-03-26T06:26:32.351Z,6.11
2019-03-26T06:27:32.347Z,6.11
2019-03-26T06:28:32.346Z,6.11
2019-03-26T06:29:32.529Z,6.11
2019-03-26T06:30:32.416Z,6.14
2019-03-26T06:31:32.756Z,6.13
2019-03-26T06:32:32.274Z,6.11
2019-03-26T06:33:32.256Z,6.14
2019-03-26T06:34:32.276Z,6.11
2019-03-26T06:35:32.235Z,6.07
2019-03-26T06:36:32.225Z,6.09
2019-03-26T06:37:32.214Z,6.10
2019-03-26T06:38:33.723Z,6.13
2019-03-26T06:39:32.196Z,6.14
2019-03-26T06:40:32.233Z,6.14
2019-03-26T06:41:32.294Z,6.16
2019-03-26T06:42:32.184Z,6.18
2019-03-26T06:43:32.286Z,6.18
2019-03-26T06:44:32.158Z,6.19
2019-03-26T06:45:32.617Z,6.19
2019-03-26T06:46:32.152Z,6.28
2019-03-26T06:47:32.105Z,6.33
2019-03-26T06:48:33.354Z,6.38
2019-03-26T06:49:32.144Z,6.38
2019-03-26T06:50:32.584Z,6.38
2019-03-26T06:51:32.063Z,6.44
2019-03-26T06:52:32.944Z,6.46
2019-03-26T06:53:32.771Z,6.46
2019-03-26T06:54:32.042Z,6.48
2019-03-26T06:55:32.019Z,6.48
2019-03-26T06:56:32.197Z,6.51
2019-03-26T06:57:35.931Z,6.44
2019-03-26T06:58:32.086Z,6.44
2019-03-26T06:59:32.284Z,6.46
2019-03-26T07:00:32.012Z,6.48
2019-03-26T07:01:31.962Z,6.47
2019-03-26T07:02:31.951Z,6.41
2019-03-26T07:03:31.988Z,6.41
2019-03-26T07:04:31.975Z,6.43
2019-03-26T07:05:31.943Z,6.43
2019-03-26T07:06:32.401Z,6.41
2019-03-26T07:07:32.192Z,6.48
2019-03-26T07:08:31.908Z,6.59
2019-03-26T07:09:32.242Z,6.72
2019-03-26T07:10:31.929Z,6.83
2019-03-26T07:11:32.090Z,6.87
2019-03-26T07:12:32.922Z,6.84
2019-03-26T07:13:32.238Z,6.86
2019-03-26T07:14:31.839Z,6.84
2019-03-26T07:15:31.821Z,6.79
2019-03-26T07:16:32.100Z,6.76
2019-03-26T07:17:31.839Z,6.66
2019-03-26T07:18:31.800Z,6.69
2019-03-26T07:19:31.870Z,6.73
2019-03-26T07:20:31.807Z,6.71
2019-03-26T07:21:31.756Z,6.66
2019-03-26T07:22:32.172Z,6.62
2019-03-26T07:23:31.783Z,6.53
2019-03-26T07:24:32.502Z,6.46
2019-03-26T07:25:31.756Z,6.46
2019-03-26T07:26:33.218Z,6.41
2019-03-26T07:27:31.678Z,6.35
2019-03-26T07:28:31.783Z,6.40
2019-03-26T07:29:32.017Z,6.47
2019-03-26T07:30:31.657Z,6.53
2019-03-26T07:31:31.646Z,6.66
2019-03-26T07:32:31.781Z,6.72
2019-03-26T07:33:31.917Z,6.63
2019-03-26T07:34:31.687Z,6.54
2019-03-26T07:35:31.627Z,6.47
2019-03-26T07:36:31.636Z,6.46
2019-03-26T07:37:44.111Z,6.48
2019-03-26T07:38:32.576Z,6.48
2019-03-26T07:39:32.404Z,6.50
2019-03-26T07:40:31.663Z,6.51
2019-03-26T07:41:31.545Z,6.51
2019-03-26T07:42:31.566Z,6.51
2019-03-26T07:43:31.518Z,6.53
2019-03-26T07:44:31.545Z,6.56
2019-03-26T07:45:31.968Z,6.48
2019-03-26T07:46:31.577Z,6.50
2019-03-26T07:47:31.680Z,6.61
2019-03-26T07:48:31.557Z,6.66
2019-03-26T07:49:31.507Z,6.69
2019-03-26T07:50:31.445Z,6.62
2019-03-26T07:51:31.498Z,6.58
2019-03-26T07:52:31.761Z,6.56
2019-03-26T07:53:31.426Z,6.53
2019-03-26T07:54:32.730Z,6.48
2019-03-26T07:55:31.865Z,6.43
2019-03-26T07:56:32.359Z,6.40
2019-03-26T07:57:32.763Z,6.40
2019-03-26T07:58:33.218Z,6.30
2019-03-26T07:59:35.642Z,6.30
2019-03-26T08:00:31.353Z,6.30
2019-03-26T08:01:31.424Z,6.29
2019-03-26T08:02:31.332Z,6.33
2019-03-26T08:03:33.100Z,6.36
2019-03-26T08:04:31.372Z,6.36
2019-03-26T08:05:31.433Z,6.36
2019-03-26T08:06:32.053Z,6.38
2019-03-26T08:07:31.281Z,6.44
2019-03-26T08:08:31.841Z,6.53
2019-03-26T08:09:31.796Z,6.47
2019-03-26T08:10:31.769Z,6.35
2019-03-26T08:11:31.240Z,6.29
2019-03-26T08:12:32.821Z,6.35
2019-03-26T08:13:31.268Z,6.44
2019-03-26T08:14:31.344Z,6.46
2019-03-26T08:15:31.222Z,6.41
2019-03-26T08:16:31.229Z,6.36
2019-03-26T08:17:31.613Z,6.41
2019-03-26T08:18:31.155Z,6.48
2019-03-26T08:19:31.191Z,6.58
2019-03-26T08:20:31.133Z,7.07
2019-03-26T08:21:31.130Z,8.35
2019-03-26T08:22:31.140Z,8.72
2019-03-26T08:23:31.224Z,9.39
2019-03-26T08:24:31.970Z,10.95
2019-03-26T08:25:33.750Z,11.59
2019-03-26T08:26:31.069Z,12.20
2019-03-26T08:27:31.059Z,12.56
2019-03-26T08:28:32.939Z,13.21
2019-03-26T08:29:31.988Z,13.65
2019-03-26T08:30:31.779Z,14.06
2019-03-26T08:31:31.029Z,14.28
2019-03-26T08:32:31.976Z,14.04
2019-03-26T08:33:31.042Z,13.74
2019-03-26T08:34:31.008Z,13.36
2019-03-26T08:35:31.517Z,13.38
2019-03-26T08:36:31.628Z,13.46
2019-03-26T08:37:32.716Z,13.43
2019-03-26T08:38:33.355Z,13.46
2019-03-26T08:39:32.425Z,13.38
2019-03-26T08:40:31.438Z,13.32
2019-03-26T08:41:31.494Z,13.46
2019-03-26T08:42:30.900Z,11.24
2019-03-26T08:43:31.548Z,11.35
2019-03-26T08:44:31.385Z,12.63
2019-03-26T08:45:30.911Z,11.62
2019-03-26T08:46:31.453Z,10.83
2019-03-26T08:47:30.842Z,9.79
2019-03-26T08:48:30.850Z,9.28
2019-03-26T08:49:31.144Z,8.86
2019-03-26T08:50:31.128Z,8.63
2019-03-26T08:51:31.668Z,8.75
2019-03-26T08:52:31.065Z,8.71
2019-03-26T08:53:30.940Z,8.62
2019-03-26T08:54:31.642Z,8.37
2019-03-26T08:55:32.247Z,8.29
2019-03-26T08:56:32.478Z,8.71
2019-03-26T08:57:31.038Z,8.55
2019-03-26T08:58:31.516Z,8.87
2019-03-26T08:59:31.183Z,9.16
2019-03-26T09:00:32.053Z,8.62
2019-03-26T09:01:30.947Z,8.26
2019-03-26T09:02:30.887Z,7.94
2019-03-26T09:03:31.186Z,7.82
2019-03-26T09:04:31.667Z,7.74
2019-03-26T09:05:31.087Z,7.69
2019-03-26T09:06:30.779Z,7.60
2019-03-26T09:07:31.144Z,7.59
2019-03-26T09:08:30.627Z,7.63
2019-03-26T09:09:30.607Z,7.62
2019-03-26T09:10:30.625Z,7.60
2019-03-26T09:11:30.578Z,7.59
2019-03-26T09:12:30.573Z,7.59
2019-03-26T09:13:30.655Z,7.66
2019-03-26T09:14:30.776Z,7.69
2019-03-26T09:15:30.986Z,7.60
2019-03-26T09:16:30.566Z,7.47
2019-03-26T09:17:30.520Z,7.34
2019-03-26T09:18:30.525Z,7.29
2019-03-26T09:19:30.492Z,7.26
2019-03-26T09:20:30.496Z,7.27
2019-03-26T09:21:32.679Z,7.27
2019-03-26T09:22:30.536Z,7.34
2019-03-26T09:23:30.456Z,7.32
2019-03-26T09:24:30.448Z,7.34
2019-03-26T09:25:30.431Z,7.37
2019-03-26T09:26:30.424Z,7.50
2019-03-26T09:27:30.404Z,7.60
2019-03-26T09:28:31.728Z,7.72
2019-03-26T09:29:30.393Z,7.78
2019-03-26T09:30:30.434Z,7.82
2019-03-26T09:31:31.064Z,7.81
2019-03-26T09:32:30.363Z,7.75
2019-03-26T09:33:30.347Z,7.59
2019-03-26T09:34:30.385Z,7.50
2019-03-26T09:35:31.088Z,7.50
2019-03-26T09:36:30.378Z,7.42
2019-03-26T09:37:30.304Z,7.29
2019-03-26T09:38:38.788Z,7.31
2019-03-26T09:39:31.347Z,7.37
2019-03-26T09:40:31.103Z,7.44
2019-03-26T09:41:30.469Z,7.42
2019-03-26T09:42:30.329Z,7.44
2019-03-26T09:43:30.253Z,7.47
2019-03-26T09:44:30.243Z,7.50
2019-03-26T09:45:30.274Z,7.50
2019-03-26T09:46:31.019Z,7.55
2019-03-26T09:47:30.460Z,7.56
2019-03-26T09:48:30.455Z,7.58
2019-03-26T09:49:30.399Z,7.69
2019-03-26T09:50:30.935Z,7.84
2019-03-26T09:51:30.843Z,7.99
2019-03-26T09:52:30.155Z,8.15
2019-03-26T09:53:30.141Z,8.32
2019-03-26T09:54:30.243Z,8.44
2019-03-26T09:55:30.132Z,8.28
2019-03-26T09:56:32.155Z,8.18
2019-03-26T09:57:30.129Z,8.17
2019-03-26T09:58:30.953Z,8.15
2019-03-26T09:59:30.065Z,8.17
2019-03-26T10:00:30.607Z,8.11
2019-03-26T10:01:30.042Z,8.10
2019-03-26T10:02:31.690Z,8.11
2019-03-26T10:03:31.241Z,8.07
2019-03-26T10:04:30.564Z,8.02
2019-03-26T10:05:29.999Z,7.93
2019-03-26T10:06:29.991Z,7.93
2019-03-26T10:07:29.991Z,7.89
2019-03-26T10:08:30.006Z,7.90
2019-03-26T10:09:30.143Z,7.93
2019-03-26T10:10:29.980Z,7.99
2019-03-26T10:11:29.937Z,7.94
2019-03-26T10:12:30.358Z,7.96
2019-03-26T10:13:29.909Z,7.94
2019-03-26T10:14:29.923Z,7.93
2019-03-26T10:15:30.120Z,7.87
2019-03-26T10:16:29.990Z,7.90
2019-03-26T10:17:29.911Z,8.02
2019-03-26T10:18:29.878Z,8.17
2019-03-26T10:19:30.718Z,8.35
2019-03-26T10:20:29.891Z,8.48
2019-03-26T10:21:30.078Z,8.60
2019-03-26T10:22:30.080Z,8.73
2019-03-26T10:23:29.855Z,8.96
2019-03-26T10:24:29.842Z,9.12
2019-03-26T10:25:29.846Z,8.96
2019-03-26T10:26:30.158Z,8.93
2019-03-26T10:27:29.796Z,8.99
2019-03-26T10:28:29.816Z,9.06
2019-03-26T10:29:31.240Z,9.04
2019-03-26T10:30:30.071Z,8.99
2019-03-26T10:31:29.753Z,9.04
2019-03-26T10:32:30.164Z,8.96
2019-03-26T10:33:29.822Z,8.81
2019-03-26T10:34:29.785Z,8.75
2019-03-26T10:35:30.569Z,8.66
2019-03-26T10:36:45.084Z,8.57
2019-03-26T10:37:32.267Z,8.50
2019-03-26T10:38:29.832Z,8.42
2019-03-26T10:39:34.857Z,8.36
2019-03-26T10:40:32.573Z,8.32
2019-03-26T10:41:31.497Z,8.30
2019-03-26T10:42:29.631Z,8.30
2019-03-26T10:43:31.908Z,8.29
2019-03-26T10:44:29.596Z,8.29
2019-03-26T10:45:29.614Z,8.39
2019-03-26T10:46:29.968Z,8.37
2019-03-26T10:47:29.675Z,8.39
2019-03-26T10:48:31.876Z,8.48
2019-03-26T10:49:29.558Z,8.55
2019-03-26T10:50:29.576Z,8.48
2019-03-26T10:51:29.656Z,8.42
2019-03-26T10:52:34.010Z,8.44
2019-03-26T10:53:31.757Z,8.44
2019-03-26T10:54:29.494Z,8.44
2019-03-26T10:55:29.475Z,8.53
2019-03-26T10:56:32.438Z,8.62
2019-03-26T10:57:29.569Z,8.57
2019-03-26T10:58:29.444Z,8.42
2019-03-26T10:59:29.446Z,8.36
2019-03-26T11:00:29.751Z,8.28
2019-03-26T11:01:29.916Z,8.18
2019-03-26T11:02:29.528Z,8.14
2019-03-26T11:03:29.484Z,8.12
2019-03-26T11:04:29.386Z,8.04
2019-03-26T11:05:30.478Z,8.03
2019-03-26T11:06:29.347Z,7.99
2019-03-26T11:07:30.914Z,7.99
2019-03-26T11:08:32.382Z,7.96
2019-03-26T11:09:31.900Z,7.92
2019-03-26T11:10:29.304Z,7.87
2019-03-26T11:11:29.866Z,7.82
2019-03-26T11:12:30.618Z,7.82
2019-03-26T11:13:29.822Z,7.84
2019-03-26T11:14:31.794Z,7.82
2019-03-26T11:15:29.521Z,7.85
2019-03-26T11:16:29.232Z,7.89
2019-03-26T11:17:29.250Z,7.93
2019-03-26T11:18:30.585Z,7.94
2019-03-26T11:19:30.588Z,7.96
2019-03-26T11:20:29.193Z,7.97
2019-03-26T11:21:29.321Z,7.96
2019-03-26T11:22:29.191Z,7.87
2019-03-26T11:23:29.179Z,7.84
2019-03-26T11:24:29.164Z,7.78
2019-03-26T11:25:29.179Z,7.75
2019-03-26T11:26:29.470Z,7.72
2019-03-26T11:27:30.592Z,7.75
2019-03-26T11:28:30.361Z,7.84
2019-03-26T11:29:29.349Z,7.89
2019-03-26T11:30:30.406Z,7.90
2019-03-26T11:31:30.260Z,7.93
2019-03-26T11:32:29.308Z,7.94
2019-03-26T11:33:29.280Z,7.99
2019-03-26T11:34:29.379Z,7.99
2019-03-26T11:35:29.048Z,7.97
2019-03-26T11:36:29.126Z,8.00
2019-03-26T11:37:29.030Z,7.97
2019-03-26T11:38:29.015Z,8.10
2019-03-26T11:39:33.017Z,8.15
2019-03-26T11:40:28.992Z,8.14
2019-03-26T11:41:29.548Z,8.10
2019-03-26T11:42:30.328Z,8.10
2019-03-26T11:43:29.489Z,8.11
2019-03-26T11:44:29.446Z,8.14
2019-03-26T11:45:28.987Z,8.15
2019-03-26T11:46:28.977Z,8.15
2019-03-26T11:47:28.929Z,8.12
2019-03-26T11:48:29.707Z,8.10
2019-03-26T11:49:28.896Z,8.11
2019-03-26T11:50:30.105Z,8.14
2019-03-26T11:51:29.446Z,8.14
2019-03-26T11:52:29.500Z,8.07
2019-03-26T11:53:29.337Z,8.04
2019-03-26T11:54:29.075Z,8.00
2019-03-26T11:55:29.208Z,7.94
2019-03-26T11:56:28.818Z,7.89
2019-03-26T11:57:28.935Z,7.79
2019-03-26T11:58:30.943Z,7.72
2019-03-26T11:59:28.784Z,7.59
2019-03-26T12:00:29.789Z,7.55
2019-03-26T12:01:29.767Z,7.49
2019-03-26T12:02:29.790Z,7.45
2019-03-26T12:03:30.798Z,7.49
2019-03-26T12:04:30.510Z,7.47
2019-03-26T12:05:32.731Z,7.50
2019-03-26T12:06:30.376Z,7.55
2019-03-26T12:07:29.087Z,7.58
2019-03-26T12:08:29.126Z,7.60
2019-03-26T12:09:29.899Z,7.66
2019-03-26T12:10:29.063Z,7.60
2019-03-26T12:11:30.026Z,7.59
2019-03-26T12:12:28.655Z,7.66
2019-03-26T12:13:29.191Z,7.56
2019-03-26T12:14:30.350Z,7.53
2019-03-26T12:15:29.165Z,7.56
2019-03-26T12:16:29.691Z,7.60
2019-03-26T12:17:28.874Z,7.62
2019-03-26T12:18:29.312Z,7.59
2019-03-26T12:19:28.691Z,7.62
2019-03-26T12:20:32.602Z,7.67
2019-03-26T12:21:30.115Z,7.72
2019-03-26T12:22:31.317Z,7.74
2019-03-26T12:23:29.855Z,7.72
2019-03-26T12:24:28.911Z,7.74
2019-03-26T12:25:29.494Z,7.71
2019-03-26T12:26:28.496Z,7.69
2019-03-26T12:27:29.394Z,7.71
2019-03-26T12:28:29.252Z,7.63
2019-03-26T12:29:29.853Z,7.58
2019-03-26T12:30:28.854Z,7.53
2019-03-26T12:31:28.474Z,7.53
2019-03-26T12:32:28.442Z,7.53
2019-03-26T12:33:28.593Z,7.55
2019-03-26T12:34:28.430Z,7.52
2019-03-26T12:35:28.463Z,7.52
2019-03-26T12:36:39.382Z,7.49
2019-03-26T12:37:29.563Z,7.49
2019-03-26T12:38:29.134Z,7.49
2019-03-26T12:39:28.633Z,7.52
2019-03-26T12:40:28.932Z,7.56
2019-03-26T12:41:28.722Z,7.60
2019-03-26T12:42:28.532Z,7.63
2019-03-26T12:43:28.776Z,7.62
2019-03-26T12:44:29.874Z,7.58
2019-03-26T12:45:28.884Z,7.58
2019-03-26T12:46:28.976Z,7.56
2019-03-26T12:47:28.316Z,7.55
2019-03-26T12:48:28.293Z,7.55
2019-03-26T12:49:30.761Z,7.58
2019-03-26T12:50:32.187Z,7.62
2019-03-26T12:51:29.317Z,7.59
2019-03-26T12:52:29.200Z,7.59
2019-03-26T12:53:29.603Z,7.59
2019-03-26T12:54:28.200Z,7.58
2019-03-26T12:55:28.489Z,7.59
2019-03-26T12:56:28.169Z,7.56
2019-03-26T12:57:28.759Z,7.59
2019-03-26T12:58:32.539Z,7.58
2019-03-26T12:59:29.149Z,7.59
2019-03-26T13:00:28.138Z,7.66
2019-03-26T13:01:28.109Z,7.72
2019-03-26T13:02:28.109Z,7.77
2019-03-26T13:03:28.959Z,7.74
2019-03-26T13:04:28.114Z,7.78
2019-03-26T13:05:28.398Z,7.77
2019-03-26T13:06:28.079Z,7.77
2019-03-26T13:07:28.049Z,7.79
2019-03-26T13:08:28.065Z,7.78
2019-03-26T13:09:28.309Z,7.82
2019-03-26T13:10:28.038Z,7.89
2019-03-26T13:11:31.525Z,7.87
2019-03-26T13:12:28.451Z,7.81
2019-03-26T13:13:27.988Z,7.90
2019-03-26T13:14:28.288Z,7.92
2019-03-26T13:15:28.905Z,7.87
2019-03-26T13:16:28.399Z,7.81
2019-03-26T13:17:28.327Z,7.89
2019-03-26T13:18:28.170Z,7.94